sensor_id;sensor_type;location;lat;lon;timestamp;temperature;humidity
40808;DHT22;26523;52.504;13.498;2022-12-20T00:01:27;3.40;99.90
40808;DHT22;26523;52.504;13.498;2022-12-20T00:03:55;3.50;99.90
40808;DHT22;26523;52.504;13.498;2022-12-20T00:06:21;3.50;99.90
40808;DHT22;26523;52.504;13.498;2022-12-20T00:08:52;3.50;99.90
40808;DHT22;26523;52.504;13.498;2022-12-20T00:11:19;3.50;99.90
40808;DHT22;26523;52.504;13.498;2022-12-20T00:13:47;3.50;99.90
40808;DHT22;26523;52.504;13.498;2022-12-20T00:16:19;3.60;99.90
40808;DHT22;26523;52.504;13.498;2022-12-20T00:18:49;3.60;99.90
40808;DHT22;26523;52.504;13.498;2022-12-20T00:21:15;3.60;99.90
40808;DHT22;26523;52.504;13.498;2022-12-20T00:23:41;3.50;99.90
40808;DHT22;26523;52.504;13.498;2022-12-20T00:26:13;3.50;99.90
40808;DHT22;26523;52.504;13.498;2022-12-20T00:28:40;3.50;99.90
40808;DHT22;26523;52.504;13.498;2022-12-20T00:31:08;3.60;99.90
40808;DHT22;26523;52.504;13.498;2022-12-20T00:33:36;3.50;99.90
40808;DHT22;26523;52.504;13.498;2022-12-20T00:36:03;3.50;99.90
40808;DHT22;26523;52.504;13.498;2022-12-20T00:38:29;3.60;99.90
40808;DHT22;26523;52.504;13.498;2022-12-20T00:41:02;3.60;99.90
40808;DHT22;26523;52.504;13.498;2022-12-20T00:43:29;3.60;99.90
40808;DHT22;26523;52.504;13.498;2022-12-20T00:45:54;3.60;99.90
40808;DHT22;26523;52.504;13.498;2022-12-20T00:48:20;3.60;99.90
40808;DHT22;26523;52.504;13.498;2022-12-20T00:50:46;3.60;99.90
40808;DHT22;26523;52.504;13.498;2022-12-20T00:53:12;3.60;99.90
40808;DHT22;26523;52.504;13.498;2022-12-20T00:55:41;3.60;99.90
40808;DHT22;26523;52.504;13.498;2022-12-20T00:58:07;3.60;99.90
40808;DHT22;26523;52.504;13.498;2022-12-20T01:00:33;3.60;99.90
40808;DHT22;26523;52.504;13.498;2022-12-20T01:02:59;3.70;99.90
40808;DHT22;26523;52.504;13.498;2022-12-20T01:05:24;3.60;99.90
40808;DHT22;26523;52.504;13.498;2022-12-20T01:07:50;3.70;99.90
40808;DHT22;26523;52.504;13.498;2022-12-20T01:10:16;3.60;99.90
40808;DHT22;26523;52.504;13.498;2022-12-20T01:12:42;3.60;99.90
40808;DHT22;26523;52.504;13.498;2022-12-20T01:15:09;3.60;99.90
40808;DHT22;26523;52.504;13.498;2022-12-20T01:17:35;3.70;99.90
40808;DHT22;26523;52.504;13.498;2022-12-20T01:20:01;3.60;99.90
40808;DHT22;26523;52.504;13.498;2022-12-20T01:22:26;3.60;99.90
40808;DHT22;26523;52.504;13.498;2022-12-20T01:24:52;3.60;99.90
40808;DHT22;26523;52.504;13.498;2022-12-20T01:27:18;3.70;99.90
40808;DHT22;26523;52.504;13.498;2022-12-20T01:29:44;3.70;99.90
40808;DHT22;26523;52.504;13.498;2022-12-20T01:32:09;3.70;99.90
40808;DHT22;26523;52.504;13.498;2022-12-20T01:34:35;3.70;99.90
40808;DHT22;26523;52.504;13.498;2022-12-20T01:37:01;3.70;99.90
40808;DHT22;26523;52.504;13.498;2022-12-20T01:39:26;3.70;99.90
40808;DHT22;26523;52.504;13.498;2022-12-20T01:41:52;3.70;99.90
40808;DHT22;26523;52.504;13.498;2022-12-20T01:46:45;3.80;99.90
40808;DHT22;26523;52.504;13.498;2022-12-20T01:51:57;3.80;99.90
40808;DHT22;26523;52.504;13.498;2022-12-20T01:54:56;3.70;99.90
40808;DHT22;26523;52.504;13.498;2022-12-20T01:57:31;3.70;99.90
40808;DHT22;26523;52.504;13.498;2022-12-20T01:59:59;3.80;99.90
40808;DHT22;26523;52.504;13.498;2022-12-20T02:02:25;3.70;99.90
40808;DHT22;26523;52.504;13.498;2022-12-20T02:04:51;3.80;99.90
40808;DHT22;26523;52.504;13.498;2022-12-20T02:07:20;3.80;99.90
40808;DHT22;26523;52.504;13.498;2022-12-20T02:09:49;3.80;99.90
40808;DHT22;26523;52.504;13.498;2022-12-20T02:12:21;3.80;99.90
40808;DHT22;26523;52.504;13.498;2022-12-20T02:15:11;3.80;99.90
40808;DHT22;26523;52.504;13.498;2022-12-20T02:23:36;3.80;99.90
40808;DHT22;26523;52.504;13.498;2022-12-20T02:31:50;3.80;99.90
40808;DHT22;26523;52.504;13.498;2022-12-20T02:34:21;3.90;99.90
40808;DHT22;26523;52.504;13.498;2022-12-20T02:36:50;3.90;99.90
40808;DHT22;26523;52.504;13.498;2022-12-20T02:39:15;3.90;99.90
40808;DHT22;26523;52.504;13.498;2022-12-20T02:41:47;3.90;99.90
40808;DHT22;26523;52.504;13.498;2022-12-20T02:44:16;4.00;99.90
40808;DHT22;26523;52.504;13.498;2022-12-20T02:47:05;4.00;99.90
40808;DHT22;26523;52.504;13.498;2022-12-20T02:49:34;3.90;99.90
40808;DHT22;26523;52.504;13.498;2022-12-20T02:52:04;3.90;99.90
40808;DHT22;26523;52.504;13.498;2022-12-20T02:54:32;3.90;99.90
40808;DHT22;26523;52.504;13.498;2022-12-20T02:57:13;3.90;99.90
40808;DHT22;26523;52.504;13.498;2022-12-20T02:59:46;3.90;99.90
40808;DHT22;26523;52.504;13.498;2022-12-20T03:02:13;4.00;99.90
40808;DHT22;26523;52.504;13.498;2022-12-20T03:04:40;3.90;99.90
40808;DHT22;26523;52.504;13.498;2022-12-20T03:07:11;4.00;99.90
40808;DHT22;26523;52.504;13.498;2022-12-20T03:09:39;4.00;99.90
40808;DHT22;26523;52.504;13.498;2022-12-20T03:12:06;4.10;99.90
40808;DHT22;26523;52.504;13.498;2022-12-20T03:14:32;4.10;99.90
40808;DHT22;26523;52.504;13.498;2022-12-20T03:16:58;4.10;99.90
40808;DHT22;26523;52.504;13.498;2022-12-20T03:19:24;4.10;99.90
40808;DHT22;26523;52.504;13.498;2022-12-20T03:21:50;4.10;99.90
40808;DHT22;26523;52.504;13.498;2022-12-20T03:24:16;4.10;99.90
40808;DHT22;26523;52.504;13.498;2022-12-20T03:26:42;4.00;99.90
40808;DHT22;26523;52.504;13.498;2022-12-20T03:29:08;4.10;99.90
40808;DHT22;26523;52.504;13.498;2022-12-20T03:31:34;4.10;99.90
40808;DHT22;26523;52.504;13.498;2022-12-20T03:34:00;4.20;99.90
40808;DHT22;26523;52.504;13.498;2022-12-20T03:36:26;4.20;99.90
40808;DHT22;26523;52.504;13.498;2022-12-20T03:38:52;4.20;99.90
40808;DHT22;26523;52.504;13.498;2022-12-20T03:41:18;4.20;99.90
40808;DHT22;26523;52.504;13.498;2022-12-20T03:43:44;4.20;99.90
40808;DHT22;26523;52.504;13.498;2022-12-20T03:46:10;4.20;99.90
40808;DHT22;26523;52.504;13.498;2022-12-20T03:48:36;4.20;99.90
40808;DHT22;26523;52.504;13.498;2022-12-20T03:51:01;4.20;99.90
40808;DHT22;26523;52.504;13.498;2022-12-20T03:53:27;4.30;99.90
40808;DHT22;26523;52.504;13.498;2022-12-20T03:55:52;4.30;99.90
40808;DHT22;26523;52.504;13.498;2022-12-20T03:58:19;4.40;99.90
40808;DHT22;26523;52.504;13.498;2022-12-20T04:00:45;4.40;99.90
40808;DHT22;26523;52.504;13.498;2022-12-20T04:03:11;4.40;99.90
40808;DHT22;26523;52.504;13.498;2022-12-20T04:05:36;4.30;99.90
40808;DHT22;26523;52.504;13.498;2022-12-20T04:08:02;4.40;99.90
40808;DHT22;26523;52.504;13.498;2022-12-20T04:10:28;4.40;99.90
40808;DHT22;26523;52.504;13.498;2022-12-20T04:12:53;4.50;99.90
40808;DHT22;26523;52.504;13.498;2022-12-20T04:15:19;4.40;99.90
40808;DHT22;26523;52.504;13.498;2022-12-20T04:17:45;4.40;99.90
40808;DHT22;26523;52.504;13.498;2022-12-20T04:20:14;4.50;99.90
40808;DHT22;26523;52.504;13.498;2022-12-20T04:22:50;4.40;99.90
40808;DHT22;26523;52.504;13.498;2022-12-20T04:25:18;4.40;99.90
40808;DHT22;26523;52.504;13.498;2022-12-20T04:27:44;4.40;99.90
40808;DHT22;26523;52.504;13.498;2022-12-20T04:30:10;4.40;99.90
40808;DHT22;26523;52.504;13.498;2022-12-20T04:32:37;4.40;99.90
40808;DHT22;26523;52.504;13.498;2022-12-20T04:35:03;4.30;99.90
40808;DHT22;26523;52.504;13.498;2022-12-20T04:37:30;4.30;99.90
40808;DHT22;26523;52.504;13.498;2022-12-20T04:39:56;4.30;99.90
40808;DHT22;26523;52.504;13.498;2022-12-20T04:42:23;4.20;99.90
40808;DHT22;26523;52.504;13.498;2022-12-20T04:44:49;4.10;99.90
40808;DHT22;26523;52.504;13.498;2022-12-20T04:47:14;4.10;99.90
40808;DHT22;26523;52.504;13.498;2022-12-20T04:49:40;4.00;99.90
40808;DHT22;26523;52.504;13.498;2022-12-20T04:52:06;4.00;99.90
40808;DHT22;26523;52.504;13.498;2022-12-20T04:54:50;3.90;99.90
40808;DHT22;26523;52.504;13.498;2022-12-20T04:57:16;3.90;99.90
40808;DHT22;26523;52.504;13.498;2022-12-20T04:59:41;3.80;99.90
40808;DHT22;26523;52.504;13.498;2022-12-20T05:02:07;3.80;99.90
40808;DHT22;26523;52.504;13.498;2022-12-20T05:04:33;3.80;99.90
40808;DHT22;26523;52.504;13.498;2022-12-20T05:06:58;3.70;99.90
40808;DHT22;26523;52.504;13.498;2022-12-20T05:09:24;3.70;99.90
40808;DHT22;26523;52.504;13.498;2022-12-20T05:11:50;3.60;99.90
40808;DHT22;26523;52.504;13.498;2022-12-20T05:14:15;3.60;99.90
40808;DHT22;26523;52.504;13.498;2022-12-20T05:16:41;3.60;99.90
40808;DHT22;26523;52.504;13.498;2022-12-20T05:19:06;3.60;99.90
40808;DHT22;26523;52.504;13.498;2022-12-20T05:21:32;3.60;99.90
40808;DHT22;26523;52.504;13.498;2022-12-20T05:24:16;3.60;99.90
40808;DHT22;26523;52.504;13.498;2022-12-20T05:27:01;3.70;99.90
40808;DHT22;26523;52.504;13.498;2022-12-20T05:29:26;3.60;99.90
40808;DHT22;26523;52.504;13.498;2022-12-20T05:31:52;3.70;99.90
40808;DHT22;26523;52.504;13.498;2022-12-20T05:34:18;3.70;99.90
40808;DHT22;26523;52.504;13.498;2022-12-20T05:36:44;3.70;99.90
40808;DHT22;26523;52.504;13.498;2022-12-20T05:39:09;3.70;99.90
40808;DHT22;26523;52.504;13.498;2022-12-20T05:41:37;3.80;99.90
40808;DHT22;26523;52.504;13.498;2022-12-20T05:44:03;3.80;99.90
40808;DHT22;26523;52.504;13.498;2022-12-20T05:46:29;3.80;99.90
40808;DHT22;26523;52.504;13.498;2022-12-20T05:48:54;3.90;99.90
40808;DHT22;26523;52.504;13.498;2022-12-20T05:51:20;3.90;99.90
40808;DHT22;26523;52.504;13.498;2022-12-20T05:53:46;3.90;99.90
40808;DHT22;26523;52.504;13.498;2022-12-20T05:56:11;3.90;99.90
40808;DHT22;26523;52.504;13.498;2022-12-20T05:58:37;3.90;99.90
40808;DHT22;26523;52.504;13.498;2022-12-20T06:01:04;3.90;99.90
40808;DHT22;26523;52.504;13.498;2022-12-20T06:03:30;3.90;99.90
40808;DHT22;26523;52.504;13.498;2022-12-20T06:05:56;3.80;99.90
40808;DHT22;26523;52.504;13.498;2022-12-20T06:08:22;3.90;99.90
40808;DHT22;26523;52.504;13.498;2022-12-20T06:10:49;4.00;99.90
40808;DHT22;26523;52.504;13.498;2022-12-20T06:13:15;4.00;99.90
40808;DHT22;26523;52.504;13.498;2022-12-20T06:15:41;4.10;99.90
40808;DHT22;26523;52.504;13.498;2022-12-20T06:18:06;4.20;99.90
40808;DHT22;26523;52.504;13.498;2022-12-20T06:20:35;4.20;99.90
40808;DHT22;26523;52.504;13.498;2022-12-20T06:23:01;4.20;99.90
40808;DHT22;26523;52.504;13.498;2022-12-20T06:25:28;4.20;99.90
40808;DHT22;26523;52.504;13.498;2022-12-20T06:27:54;4.20;99.90
40808;DHT22;26523;52.504;13.498;2022-12-20T06:30:22;4.30;99.90
40808;DHT22;26523;52.504;13.498;2022-12-20T06:32:48;4.40;99.90
40808;DHT22;26523;52.504;13.498;2022-12-20T06:35:13;4.50;99.90
40808;DHT22;26523;52.504;13.498;2022-12-20T06:37:40;4.50;99.90
40808;DHT22;26523;52.504;13.498;2022-12-20T06:40:11;4.50;99.90
40808;DHT22;26523;52.504;13.498;2022-12-20T06:42:37;4.60;99.90
40808;DHT22;26523;52.504;13.498;2022-12-20T06:45:04;4.50;99.90
40808;DHT22;26523;52.504;13.498;2022-12-20T06:47:30;4.60;99.90
40808;DHT22;26523;52.504;13.498;2022-12-20T06:49:55;4.50;99.90
40808;DHT22;26523;52.504;13.498;2022-12-20T06:52:22;4.60;99.90
40808;DHT22;26523;52.504;13.498;2022-12-20T06:54:47;4.60;99.90
40808;DHT22;26523;52.504;13.498;2022-12-20T06:57:13;4.60;99.90
40808;DHT22;26523;52.504;13.498;2022-12-20T06:59:39;4.60;99.90
40808;DHT22;26523;52.504;13.498;2022-12-20T07:02:05;4.60;99.90
40808;DHT22;26523;52.504;13.498;2022-12-20T07:04:31;4.60;99.90
40808;DHT22;26523;52.504;13.498;2022-12-20T07:06:57;4.60;99.90
40808;DHT22;26523;52.504;13.498;2022-12-20T07:09:23;4.60;99.90
40808;DHT22;26523;52.504;13.498;2022-12-20T07:11:48;4.70;99.90
40808;DHT22;26523;52.504;13.498;2022-12-20T07:14:14;4.60;99.90
40808;DHT22;26523;52.504;13.498;2022-12-20T07:16:40;4.70;99.90
40808;DHT22;26523;52.504;13.498;2022-12-20T07:19:10;4.60;99.90
40808;DHT22;26523;52.504;13.498;2022-12-20T07:21:36;4.60;99.90
40808;DHT22;26523;52.504;13.498;2022-12-20T07:24:02;4.70;99.90
40808;DHT22;26523;52.504;13.498;2022-12-20T07:26:27;4.60;99.90
40808;DHT22;26523;52.504;13.498;2022-12-20T07:28:53;4.60;99.90
40808;DHT22;26523;52.504;13.498;2022-12-20T07:31:19;4.60;99.90
40808;DHT22;26523;52.504;13.498;2022-12-20T07:33:45;4.60;99.90
40808;DHT22;26523;52.504;13.498;2022-12-20T07:36:12;4.60;99.90
40808;DHT22;26523;52.504;13.498;2022-12-20T07:38:38;4.60;99.90
40808;DHT22;26523;52.504;13.498;2022-12-20T07:41:12;4.60;99.90
40808;DHT22;26523;52.504;13.498;2022-12-20T07:43:38;4.80;99.90
40808;DHT22;26523;52.504;13.498;2022-12-20T07:46:04;4.80;99.90
40808;DHT22;26523;52.504;13.498;2022-12-20T07:48:30;4.80;99.90
40808;DHT22;26523;52.504;13.498;2022-12-20T07:51:22;4.90;99.90
40808;DHT22;26523;52.504;13.498;2022-12-20T07:54:04;4.90;99.90
40808;DHT22;26523;52.504;13.498;2022-12-20T07:56:32;5.00;99.90
40808;DHT22;26523;52.504;13.498;2022-12-20T07:59:00;5.00;99.90
40808;DHT22;26523;52.504;13.498;2022-12-20T08:01:26;4.90;99.90
40808;DHT22;26523;52.504;13.498;2022-12-20T08:04:04;4.90;99.90
40808;DHT22;26523;52.504;13.498;2022-12-20T08:06:31;4.90;99.90
40808;DHT22;26523;52.504;13.498;2022-12-20T08:09:02;4.90;99.90
40808;DHT22;26523;52.504;13.498;2022-12-20T08:11:29;4.90;99.90
40808;DHT22;26523;52.504;13.498;2022-12-20T08:13:56;4.90;99.90
40808;DHT22;26523;52.504;13.498;2022-12-20T08:16:21;4.90;99.90
40808;DHT22;26523;52.504;13.498;2022-12-20T08:18:47;5.00;99.90
40808;DHT22;26523;52.504;13.498;2022-12-20T08:21:13;5.00;99.90
40808;DHT22;26523;52.504;13.498;2022-12-20T08:23:39;5.00;99.90
40808;DHT22;26523;52.504;13.498;2022-12-20T08:26:05;5.10;99.90
40808;DHT22;26523;52.504;13.498;2022-12-20T08:28:30;5.10;99.90
40808;DHT22;26523;52.504;13.498;2022-12-20T08:31:04;5.10;99.90
40808;DHT22;26523;52.504;13.498;2022-12-20T08:33:31;5.20;99.90
40808;DHT22;26523;52.504;13.498;2022-12-20T08:35:58;5.20;99.90
40808;DHT22;26523;52.504;13.498;2022-12-20T08:38:26;5.20;99.90
40808;DHT22;26523;52.504;13.498;2022-12-20T08:40:52;5.20;99.90
40808;DHT22;26523;52.504;13.498;2022-12-20T08:43:17;5.20;99.90
40808;DHT22;26523;52.504;13.498;2022-12-20T08:45:43;5.20;99.90
40808;DHT22;26523;52.504;13.498;2022-12-20T08:48:08;5.30;99.90
40808;DHT22;26523;52.504;13.498;2022-12-20T08:50:34;5.30;99.90
40808;DHT22;26523;52.504;13.498;2022-12-20T08:53:00;5.30;99.90
40808;DHT22;26523;52.504;13.498;2022-12-20T08:55:26;5.30;99.90
40808;DHT22;26523;52.504;13.498;2022-12-20T08:57:52;5.30;99.90
40808;DHT22;26523;52.504;13.498;2022-12-20T09:00:19;5.40;99.90
40808;DHT22;26523;52.504;13.498;2022-12-20T09:02:45;5.40;99.90
40808;DHT22;26523;52.504;13.498;2022-12-20T09:05:12;5.50;99.90
40808;DHT22;26523;52.504;13.498;2022-12-20T09:07:38;5.50;99.90
40808;DHT22;26523;52.504;13.498;2022-12-20T09:10:05;5.60;99.90
40808;DHT22;26523;52.504;13.498;2022-12-20T09:12:31;5.60;99.90
40808;DHT22;26523;52.504;13.498;2022-12-20T09:15:00;5.70;99.90
40808;DHT22;26523;52.504;13.498;2022-12-20T09:17:26;5.80;99.90
40808;DHT22;26523;52.504;13.498;2022-12-20T09:19:52;5.70;99.90
40808;DHT22;26523;52.504;13.498;2022-12-20T09:22:19;5.80;99.90
40808;DHT22;26523;52.504;13.498;2022-12-20T09:24:45;5.80;99.90
40808;DHT22;26523;52.504;13.498;2022-12-20T09:27:10;5.90;99.90
40808;DHT22;26523;52.504;13.498;2022-12-20T09:29:36;6.00;99.90
40808;DHT22;26523;52.504;13.498;2022-12-20T09:32:02;6.10;99.90
40808;DHT22;26523;52.504;13.498;2022-12-20T09:34:28;6.10;99.90
40808;DHT22;26523;52.504;13.498;2022-12-20T09:36:54;6.20;99.90
40808;DHT22;26523;52.504;13.498;2022-12-20T09:39:19;6.20;99.90
40808;DHT22;26523;52.504;13.498;2022-12-20T09:41:45;6.20;99.90
40808;DHT22;26523;52.504;13.498;2022-12-20T09:46:38;6.40;99.90
40808;DHT22;26523;52.504;13.498;2022-12-20T09:49:04;6.60;99.90
40808;DHT22;26523;52.504;13.498;2022-12-20T09:51:57;6.80;99.90
40808;DHT22;26523;52.504;13.498;2022-12-20T09:54:38;6.90;99.90
40808;DHT22;26523;52.504;13.498;2022-12-20T09:59:43;7.20;99.90
40808;DHT22;26523;52.504;13.498;2022-12-20T10:02:11;7.30;99.90
40808;DHT22;26523;52.504;13.498;2022-12-20T10:04:37;7.30;99.90
40808;DHT22;26523;52.504;13.498;2022-12-20T10:12:56;7.20;99.90
40808;DHT22;26523;52.504;13.498;2022-12-20T10:15:34;7.30;99.90
40808;DHT22;26523;52.504;13.498;2022-12-20T10:18:17;7.30;99.90
40808;DHT22;26523;52.504;13.498;2022-12-20T10:20:53;7.30;99.90
40808;DHT22;26523;52.504;13.498;2022-12-20T10:23:26;7.30;99.90
40808;DHT22;26523;52.504;13.498;2022-12-20T10:25:54;7.40;99.90
40808;DHT22;26523;52.504;13.498;2022-12-20T10:28:26;7.40;99.90
40808;DHT22;26523;52.504;13.498;2022-12-20T10:30:52;7.40;99.90
40808;DHT22;26523;52.504;13.498;2022-12-20T10:33:22;7.40;99.90
40808;DHT22;26523;52.504;13.498;2022-12-20T10:35:49;7.40;99.90
40808;DHT22;26523;52.504;13.498;2022-12-20T10:38:16;7.50;99.90
40808;DHT22;26523;52.504;13.498;2022-12-20T10:43:23;7.50;99.90
40808;DHT22;26523;52.504;13.498;2022-12-20T10:46:05;7.50;99.90
40808;DHT22;26523;52.504;13.498;2022-12-20T10:48:33;7.50;99.90
40808;DHT22;26523;52.504;13.498;2022-12-20T10:53:35;7.50;99.90
40808;DHT22;26523;52.504;13.498;2022-12-20T10:56:21;7.70;99.90
40808;DHT22;26523;52.504;13.498;2022-12-20T10:58:52;7.90;99.90
40808;DHT22;26523;52.504;13.498;2022-12-20T11:01:19;8.00;99.90
40808;DHT22;26523;52.504;13.498;2022-12-20T11:04:05;8.20;99.90
40808;DHT22;26523;52.504;13.498;2022-12-20T11:12:11;8.20;99.90
40808;DHT22;26523;52.504;13.498;2022-12-20T11:14:37;8.20;99.90
40808;DHT22;26523;52.504;13.498;2022-12-20T11:17:24;8.30;99.90
40808;DHT22;26523;52.504;13.498;2022-12-20T11:22:46;8.10;99.90
40808;DHT22;26523;52.504;13.498;2022-12-20T11:28:09;8.10;99.90
40808;DHT22;26523;52.504;13.498;2022-12-20T11:36:42;8.10;99.90
40808;DHT22;26523;52.504;13.498;2022-12-20T11:41:49;8.30;99.90
40808;DHT22;26523;52.504;13.498;2022-12-20T11:49:46;8.20;99.90
40808;DHT22;26523;52.504;13.498;2022-12-20T11:52:37;8.30;99.90
40808;DHT22;26523;52.504;13.498;2022-12-20T11:55:21;8.40;99.90
40808;DHT22;26523;52.504;13.498;2022-12-20T11:58:00;8.40;99.90
40808;DHT22;26523;52.504;13.498;2022-12-20T12:00:28;8.40;99.90
40808;DHT22;26523;52.504;13.498;2022-12-20T12:05:46;8.30;99.90
40808;DHT22;26523;52.504;13.498;2022-12-20T12:08:15;8.30;99.90
40808;DHT22;26523;52.504;13.498;2022-12-20T12:10:52;8.20;99.90
40808;DHT22;26523;52.504;13.498;2022-12-20T12:13:29;8.20;99.90
40808;DHT22;26523;52.504;13.498;2022-12-20T12:16:48;8.20;99.90
40808;DHT22;26523;52.504;13.498;2022-12-20T12:19:11;8.10;99.90
40808;DHT22;26523;52.504;13.498;2022-12-20T12:21:48;8.10;99.90
40808;DHT22;26523;52.504;13.498;2022-12-20T12:26:51;8.30;99.90
40808;DHT22;26523;52.504;13.498;2022-12-20T12:29:18;8.20;99.90
40808;DHT22;26523;52.504;13.498;2022-12-20T12:32:16;8.20;99.90
40808;DHT22;26523;52.504;13.498;2022-12-20T12:45:50;8.00;99.90
40808;DHT22;26523;52.504;13.498;2022-12-20T12:48:21;8.00;99.90
40808;DHT22;26523;52.504;13.498;2022-12-20T12:50:52;8.00;99.90
40808;DHT22;26523;52.504;13.498;2022-12-20T12:53:31;8.00;99.90
40808;DHT22;26523;52.504;13.498;2022-12-20T12:55:58;8.00;99.90
40808;DHT22;26523;52.504;13.498;2022-12-20T13:04:58;7.90;99.90
40808;DHT22;26523;52.504;13.498;2022-12-20T13:11:55;7.80;99.90
40808;DHT22;26523;52.504;13.498;2022-12-20T13:16:54;7.90;99.90
40808;DHT22;26523;52.504;13.498;2022-12-20T13:19:47;7.90;99.90
40808;DHT22;26523;52.504;13.498;2022-12-20T13:27:38;7.80;99.90
40808;DHT22;26523;52.504;13.498;2022-12-20T13:32:55;7.70;99.90
40808;DHT22;26523;52.504;13.498;2022-12-20T13:43:26;7.50;99.90
40808;DHT22;26523;52.504;13.498;2022-12-20T13:48:36;7.50;99.90
40808;DHT22;26523;52.504;13.498;2022-12-20T13:51:04;7.50;99.90
40808;DHT22;26523;52.504;13.498;2022-12-20T13:53:32;7.50;99.90
40808;DHT22;26523;52.504;13.498;2022-12-20T13:55:58;7.50;99.90
40808;DHT22;26523;52.504;13.498;2022-12-20T13:58:45;7.60;99.90
40808;DHT22;26523;52.504;13.498;2022-12-20T14:01:12;7.50;99.90
40808;DHT22;26523;52.504;13.498;2022-12-20T14:03:44;7.50;99.90
40808;DHT22;26523;52.504;13.498;2022-12-20T14:06:13;7.50;99.90
40808;DHT22;26523;52.504;13.498;2022-12-20T14:08:50;7.40;99.90
40808;DHT22;26523;52.504;13.498;2022-12-20T14:11:19;7.40;99.90
40808;DHT22;26523;52.504;13.498;2022-12-20T14:13:57;7.40;99.90
40808;DHT22;26523;52.504;13.498;2022-12-20T14:16:25;7.40;99.90
40808;DHT22;26523;52.504;13.498;2022-12-20T14:19:13;7.40;99.90
40808;DHT22;26523;52.504;13.498;2022-12-20T14:21:42;7.30;99.90
40808;DHT22;26523;52.504;13.498;2022-12-20T14:24:27;7.30;99.90
40808;DHT22;26523;52.504;13.498;2022-12-20T14:26:53;7.30;99.90
40808;DHT22;26523;52.504;13.498;2022-12-20T14:29:27;7.20;99.90
40808;DHT22;26523;52.504;13.498;2022-12-20T14:31:54;7.20;99.90
40808;DHT22;26523;52.504;13.498;2022-12-20T14:34:27;7.10;99.90
40808;DHT22;26523;52.504;13.498;2022-12-20T14:37:23;7.20;99.90
40808;DHT22;26523;52.504;13.498;2022-12-20T14:42:38;7.10;99.90
40808;DHT22;26523;52.504;13.498;2022-12-20T14:47:36;7.00;99.90
40808;DHT22;26523;52.504;13.498;2022-12-20T14:50:29;7.00;99.90
40808;DHT22;26523;52.504;13.498;2022-12-20T14:52:56;7.00;99.90
40808;DHT22;26523;52.504;13.498;2022-12-20T14:55:44;7.00;99.90
40808;DHT22;26523;52.504;13.498;2022-12-20T14:58:31;6.90;99.90
40808;DHT22;26523;52.504;13.498;2022-12-20T15:01:18;6.90;99.90
40808;DHT22;26523;52.504;13.498;2022-12-20T15:08:59;6.90;99.90
40808;DHT22;26523;52.504;13.498;2022-12-20T15:11:24;6.90;99.90
40808;DHT22;26523;52.504;13.498;2022-12-20T15:13:52;6.90;99.90
40808;DHT22;26523;52.504;13.498;2022-12-20T15:16:21;6.90;99.90
40808;DHT22;26523;52.504;13.498;2022-12-20T15:18:48;6.80;99.90
40808;DHT22;26523;52.504;13.498;2022-12-20T15:21:17;6.90;99.90
40808;DHT22;26523;52.504;13.498;2022-12-20T15:23:52;6.90;99.90
40808;DHT22;26523;52.504;13.498;2022-12-20T15:26:22;6.90;99.90
40808;DHT22;26523;52.504;13.498;2022-12-20T15:28:48;6.90;99.90
40808;DHT22;26523;52.504;13.498;2022-12-20T15:31:17;6.80;99.90
40808;DHT22;26523;52.504;13.498;2022-12-20T15:33:43;6.80;99.90
40808;DHT22;26523;52.504;13.498;2022-12-20T15:36:20;6.80;99.90
40808;DHT22;26523;52.504;13.498;2022-12-20T15:38:48;6.90;99.90
40808;DHT22;26523;52.504;13.498;2022-12-20T15:41:31;6.80;99.90
40808;DHT22;26523;52.504;13.498;2022-12-20T15:44:06;6.80;99.90
40808;DHT22;26523;52.504;13.498;2022-12-20T15:46:35;6.80;99.90
40808;DHT22;26523;52.504;13.498;2022-12-20T15:49:01;6.60;99.90
40808;DHT22;26523;52.504;13.498;2022-12-20T15:51:30;6.60;99.90
40808;DHT22;26523;52.504;13.498;2022-12-20T15:53:57;6.60;99.90
40808;DHT22;26523;52.504;13.498;2022-12-20T15:56:24;6.50;99.90
40808;DHT22;26523;52.504;13.498;2022-12-20T15:58:50;6.50;99.90
40808;DHT22;26523;52.504;13.498;2022-12-20T16:01:21;6.50;99.90
40808;DHT22;26523;52.504;13.498;2022-12-20T16:03:48;6.60;99.90
40808;DHT22;26523;52.504;13.498;2022-12-20T16:06:14;6.50;99.90
40808;DHT22;26523;52.504;13.498;2022-12-20T16:08:40;6.50;99.90
40808;DHT22;26523;52.504;13.498;2022-12-20T16:11:23;6.40;99.90
40808;DHT22;26523;52.504;13.498;2022-12-20T16:13:49;6.40;99.90
40808;DHT22;26523;52.504;13.498;2022-12-20T16:16:17;6.30;99.90
40808;DHT22;26523;52.504;13.498;2022-12-20T16:18:43;6.30;99.90
40808;DHT22;26523;52.504;13.498;2022-12-20T16:21:22;6.30;99.90
40808;DHT22;26523;52.504;13.498;2022-12-20T16:23:49;6.20;99.90
40808;DHT22;26523;52.504;13.498;2022-12-20T16:26:17;6.20;99.90
40808;DHT22;26523;52.504;13.498;2022-12-20T16:28:44;6.20;99.90
40808;DHT22;26523;52.504;13.498;2022-12-20T16:31:31;6.20;99.90
40808;DHT22;26523;52.504;13.498;2022-12-20T16:33:59;6.20;99.90
40808;DHT22;26523;52.504;13.498;2022-12-20T16:36:25;6.10;99.90
40808;DHT22;26523;52.504;13.498;2022-12-20T16:38:51;6.10;99.90
40808;DHT22;26523;52.504;13.498;2022-12-20T16:41:27;6.10;99.90
40808;DHT22;26523;52.504;13.498;2022-12-20T16:43:55;6.10;99.90
40808;DHT22;26523;52.504;13.498;2022-12-20T16:46:23;6.00;99.90
40808;DHT22;26523;52.504;13.498;2022-12-20T16:48:50;6.00;99.90
40808;DHT22;26523;52.504;13.498;2022-12-20T16:51:30;5.90;99.90
40808;DHT22;26523;52.504;13.498;2022-12-20T16:54:04;5.90;99.90
40808;DHT22;26523;52.504;13.498;2022-12-20T16:56:31;5.90;99.90
40808;DHT22;26523;52.504;13.498;2022-12-20T16:58:57;5.80;99.90
40808;DHT22;26523;52.504;13.498;2022-12-20T17:01:27;5.90;99.90
40808;DHT22;26523;52.504;13.498;2022-12-20T17:03:54;5.90;99.90
40808;DHT22;26523;52.504;13.498;2022-12-20T17:06:20;5.80;99.90
40808;DHT22;26523;52.504;13.498;2022-12-20T17:08:46;5.80;99.90
40808;DHT22;26523;52.504;13.498;2022-12-20T17:11:14;5.70;99.90
40808;DHT22;26523;52.504;13.498;2022-12-20T17:13:41;5.70;99.90
40808;DHT22;26523;52.504;13.498;2022-12-20T17:16:09;5.70;99.90
40808;DHT22;26523;52.504;13.498;2022-12-20T17:18:38;5.70;99.90
40808;DHT22;26523;52.504;13.498;2022-12-20T17:21:18;5.70;99.90
40808;DHT22;26523;52.504;13.498;2022-12-20T17:23:49;5.70;99.90
40808;DHT22;26523;52.504;13.498;2022-12-20T17:26:25;5.70;99.90
40808;DHT22;26523;52.504;13.498;2022-12-20T17:28:52;5.70;99.90
40808;DHT22;26523;52.504;13.498;2022-12-20T17:31:30;5.60;99.90
40808;DHT22;26523;52.504;13.498;2022-12-20T17:34:01;5.60;99.90
40808;DHT22;26523;52.504;13.498;2022-12-20T17:36:27;5.60;99.90
40808;DHT22;26523;52.504;13.498;2022-12-20T17:38:53;5.60;99.90
40808;DHT22;26523;52.504;13.498;2022-12-20T17:41:30;5.60;99.90